Pagina principală
METAR-TAF:

METAR-TAF

Aeroporturi :

Oakey, Australia

Latitudine: 27-24-41S, longitudine: 151-44-07E, elevație: 407 m

Observații meteo curente

Raportul a fost făcut în urmă cu 1 oră și 10 de minute, la 09:00 UTC
Vânt 7 kt de la Vest
Temperatură 12°C
Umiditate 67%
Presiune 1020 hPa
Vizibilitate de 10 km sau mai mult
nu există nori sub 1.500 m și nici cumulonimbus

METAR: YBOK 260900Z 28007KT CAVOK 12/06 Q1020 NOSIG

Ora: 20:10 (10:10 UTC)


TAF: lipsă

Observații și prognoze meteo pentru peste 4.000 de aeroporturi (rapoarte METAR și TAF).

Stațiile disponibile sunt reprezentate pe hartă prin puncte galbene și roșii.

Țineți indicatorul mouse-ului pe punctul dorit pentru a vedea denumirea stației.

Apoi, faceți clic pentru a vedea observațiile și prognozele meteorologice.

Pentru a schimba harta: Pentru mărire, faceți clic pe butoanele verzi cu cruce neagră; pentru micșorare, pe butonul verde cu o liniuță; pentru hărți învecinate, pe săgețile verzi.


METAR-TAF: